sensor_id;sensor_type;location;lat;lon;timestamp;P1;durP1;ratioP1;P2;durP2;ratioP2
18290;SDS011;9271;48.590;8.866;2022-07-19T00:02:21;2.50;;;2.30;;
18290;SDS011;9271;48.590;8.866;2022-07-19T00:04:49;2.30;;;2.17;;
18290;SDS011;9271;48.590;8.866;2022-07-19T00:07:16;2.77;;;2.50;;
18290;SDS011;9271;48.590;8.866;2022-07-19T00:09:42;4.73;;;2.60;;
18290;SDS011;9271;48.590;8.866;2022-07-19T00:12:09;10.10;;;2.60;;
18290;SDS011;9271;48.590;8.866;2022-07-19T00:14:38;6.37;;;2.80;;
18290;SDS011;9271;48.590;8.866;2022-07-19T00:17:05;4.57;;;2.60;;
18290;SDS011;9271;48.590;8.866;2022-07-19T00:19:32;3.40;;;2.50;;
18290;SDS011;9271;48.590;8.866;2022-07-19T00:22:00;5.33;;;2.70;;
18290;SDS011;9271;48.590;8.866;2022-07-19T00:24:27;3.00;;;2.67;;
18290;SDS011;9271;48.590;8.866;2022-07-19T00:26:54;3.90;;;2.80;;
18290;SDS011;9271;48.590;8.866;2022-07-19T00:29:20;3.83;;;2.73;;
18290;SDS011;9271;48.590;8.866;2022-07-19T00:31:47;5.60;;;3.37;;
18290;SDS011;9271;48.590;8.866;2022-07-19T00:34:14;3.77;;;2.20;;
18290;SDS011;9271;48.590;8.866;2022-07-19T00:36:41;4.50;;;2.77;;
18290;SDS011;9271;48.590;8.866;2022-07-19T00:39:09;6.93;;;3.10;;
18290;SDS011;9271;48.590;8.866;2022-07-19T00:41:38;7.47;;;3.30;;
18290;SDS011;9271;48.590;8.866;2022-07-19T00:44:06;3.60;;;2.67;;
18290;SDS011;9271;48.590;8.866;2022-07-19T00:46:33;3.17;;;2.87;;
18290;SDS011;9271;48.590;8.866;2022-07-19T00:49:00;6.03;;;3.53;;
18290;SDS011;9271;48.590;8.866;2022-07-19T00:51:27;3.03;;;2.70;;
18290;SDS011;9271;48.590;8.866;2022-07-19T00:53:54;4.30;;;2.77;;
18290;SDS011;9271;48.590;8.866;2022-07-19T00:56:22;3.30;;;2.93;;
18290;SDS011;9271;48.590;8.866;2022-07-19T00:58:52;5.00;;;2.60;;
18290;SDS011;9271;48.590;8.866;2022-07-19T01:01:20;3.47;;;2.80;;
18290;SDS011;9271;48.590;8.866;2022-07-19T01:03:47;3.17;;;2.87;;
18290;SDS011;9271;48.590;8.866;2022-07-19T01:06:15;4.03;;;2.50;;
18290;SDS011;9271;48.590;8.866;2022-07-19T01:08:41;3.10;;;2.80;;
18290;SDS011;9271;48.590;8.866;2022-07-19T01:11:08;3.83;;;2.70;;
18290;SDS011;9271;48.590;8.866;2022-07-19T01:13:36;4.23;;;2.70;;
18290;SDS011;9271;48.590;8.866;2022-07-19T01:16:03;3.53;;;2.83;;
18290;SDS011;9271;48.590;8.866;2022-07-19T01:18:30;4.03;;;2.97;;
18290;SDS011;9271;48.590;8.866;2022-07-19T01:20:57;4.43;;;3.30;;
18290;SDS011;9271;48.590;8.866;2022-07-19T01:23:26;4.77;;;3.30;;
18290;SDS011;9271;48.590;8.866;2022-07-19T01:25:53;3.07;;;2.83;;
18290;SDS011;9271;48.590;8.866;2022-07-19T01:28:19;4.73;;;3.13;;
18290;SDS011;9271;48.590;8.866;2022-07-19T01:30:46;3.73;;;3.10;;
18290;SDS011;9271;48.590;8.866;2022-07-19T01:33:13;3.57;;;3.27;;
18290;SDS011;9271;48.590;8.866;2022-07-19T01:35:39;4.27;;;3.00;;
18290;SDS011;9271;48.590;8.866;2022-07-19T01:38:06;4.17;;;3.00;;
18290;SDS011;9271;48.590;8.866;2022-07-19T01:40:34;5.57;;;3.07;;
18290;SDS011;9271;48.590;8.866;2022-07-19T01:43:01;5.03;;;3.10;;
18290;SDS011;9271;48.590;8.866;2022-07-19T01:45:28;3.43;;;3.13;;
18290;SDS011;9271;48.590;8.866;2022-07-19T01:47:56;3.50;;;3.20;;
18290;SDS011;9271;48.590;8.866;2022-07-19T01:50:22;5.00;;;3.30;;
18290;SDS011;9271;48.590;8.866;2022-07-19T01:52:49;4.13;;;3.10;;
18290;SDS011;9271;48.590;8.866;2022-07-19T01:55:16;3.47;;;3.17;;
18290;SDS011;9271;48.590;8.866;2022-07-19T01:57:45;3.40;;;3.10;;
18290;SDS011;9271;48.590;8.866;2022-07-19T02:00:12;3.70;;;3.40;;
18290;SDS011;9271;48.590;8.866;2022-07-19T02:02:40;4.73;;;3.40;;
18290;SDS011;9271;48.590;8.866;2022-07-19T02:05:06;4.60;;;3.10;;
18290;SDS011;9271;48.590;8.866;2022-07-19T02:07:34;4.17;;;2.87;;
18290;SDS011;9271;48.590;8.866;2022-07-19T02:10:00;8.97;;;3.20;;
18290;SDS011;9271;48.590;8.866;2022-07-19T02:12:27;7.13;;;3.30;;
18290;SDS011;9271;48.590;8.866;2022-07-19T02:14:55;5.17;;;3.20;;
18290;SDS011;9271;48.590;8.866;2022-07-19T02:17:22;3.60;;;3.30;;
18290;SDS011;9271;48.590;8.866;2022-07-19T02:19:48;4.57;;;3.20;;
18290;SDS011;9271;48.590;8.866;2022-07-19T02:22:15;4.17;;;3.13;;
18290;SDS011;9271;48.590;8.866;2022-07-19T02:24:42;3.67;;;3.13;;
18290;SDS011;9271;48.590;8.866;2022-07-19T02:27:09;4.67;;;3.43;;
18290;SDS011;9271;48.590;8.866;2022-07-19T02:29:36;5.83;;;3.70;;
18290;SDS011;9271;48.590;8.866;2022-07-19T02:32:04;4.67;;;3.53;;
18290;SDS011;9271;48.590;8.866;2022-07-19T02:34:32;3.53;;;3.23;;
18290;SDS011;9271;48.590;8.866;2022-07-19T02:36:59;6.33;;;3.20;;
18290;SDS011;9271;48.590;8.866;2022-07-19T02:39:26;3.50;;;3.20;;
18290;SDS011;9271;48.590;8.866;2022-07-19T02:41:53;3.50;;;3.20;;
18290;SDS011;9271;48.590;8.866;2022-07-19T02:44:19;4.07;;;3.67;;
18290;SDS011;9271;48.590;8.866;2022-07-19T02:46:46;6.27;;;3.20;;
18290;SDS011;9271;48.590;8.866;2022-07-19T02:49:14;5.10;;;3.30;;
18290;SDS011;9271;48.590;8.866;2022-07-19T02:51:41;4.17;;;3.40;;
18290;SDS011;9271;48.590;8.866;2022-07-19T02:54:08;3.67;;;3.37;;
18290;SDS011;9271;48.590;8.866;2022-07-19T02:56:34;3.87;;;3.27;;
18290;SDS011;9271;48.590;8.866;2022-07-19T02:59:02;3.80;;;3.00;;
18290;SDS011;9271;48.590;8.866;2022-07-19T03:01:29;3.70;;;3.40;;
18290;SDS011;9271;48.590;8.866;2022-07-19T03:03:56;4.27;;;3.20;;
18290;SDS011;9271;48.590;8.866;2022-07-19T03:06:24;3.87;;;3.43;;
18290;SDS011;9271;48.590;8.866;2022-07-19T03:08:51;3.83;;;3.53;;
18290;SDS011;9271;48.590;8.866;2022-07-19T03:11:18;3.57;;;3.27;;
18290;SDS011;9271;48.590;8.866;2022-07-19T03:13:45;4.00;;;3.40;;
18290;SDS011;9271;48.590;8.866;2022-07-19T03:16:11;4.03;;;3.67;;
18290;SDS011;9271;48.590;8.866;2022-07-19T03:18:38;5.10;;;3.30;;
18290;SDS011;9271;48.590;8.866;2022-07-19T03:21:05;3.73;;;3.40;;
18290;SDS011;9271;48.590;8.866;2022-07-19T03:23:34;3.67;;;3.37;;
18290;SDS011;9271;48.590;8.866;2022-07-19T03:26:01;7.40;;;3.30;;
18290;SDS011;9271;48.590;8.866;2022-07-19T03:28:28;3.77;;;3.27;;
18290;SDS011;9271;48.590;8.866;2022-07-19T03:30:55;4.67;;;3.60;;
18290;SDS011;9271;48.590;8.866;2022-07-19T03:33:22;3.60;;;3.30;;
18290;SDS011;9271;48.590;8.866;2022-07-19T03:35:48;3.60;;;3.30;;
18290;SDS011;9271;48.590;8.866;2022-07-19T03:38:15;3.60;;;3.30;;
18290;SDS011;9271;48.590;8.866;2022-07-19T03:40:44;3.90;;;3.50;;
18290;SDS011;9271;48.590;8.866;2022-07-19T03:43:12;5.60;;;3.80;;
18290;SDS011;9271;48.590;8.866;2022-07-19T03:45:39;3.93;;;3.53;;
18290;SDS011;9271;48.590;8.866;2022-07-19T03:48:06;3.90;;;3.40;;
18290;SDS011;9271;48.590;8.866;2022-07-19T03:50:32;5.60;;;3.57;;
18290;SDS011;9271;48.590;8.866;2022-07-19T03:52:59;3.70;;;3.40;;
18290;SDS011;9271;48.590;8.866;2022-07-19T03:55:26;4.00;;;3.57;;
18290;SDS011;9271;48.590;8.866;2022-07-19T03:57:54;5.33;;;3.77;;
18290;SDS011;9271;48.590;8.866;2022-07-19T04:00:21;5.97;;;3.60;;
18290;SDS011;9271;48.590;8.866;2022-07-19T04:02:48;5.77;;;3.27;;
18290;SDS011;9271;48.590;8.866;2022-07-19T04:05:15;4.53;;;3.53;;
18290;SDS011;9271;48.590;8.866;2022-07-19T04:07:41;5.27;;;3.60;;
18290;SDS011;9271;48.590;8.866;2022-07-19T04:10:08;8.23;;;3.73;;
18290;SDS011;9271;48.590;8.866;2022-07-19T04:12:36;3.90;;;3.50;;
18290;SDS011;9271;48.590;8.866;2022-07-19T04:15:04;3.70;;;3.40;;
18290;SDS011;9271;48.590;8.866;2022-07-19T04:17:32;3.60;;;3.27;;
18290;SDS011;9271;48.590;8.866;2022-07-19T04:19:58;4.20;;;3.10;;
18290;SDS011;9271;48.590;8.866;2022-07-19T04:22:25;3.67;;;3.37;;
18290;SDS011;9271;48.590;8.866;2022-07-19T04:24:52;3.97;;;3.40;;
18290;SDS011;9271;48.590;8.866;2022-07-19T04:27:19;4.70;;;3.37;;
18290;SDS011;9271;48.590;8.866;2022-07-19T04:29:46;3.87;;;3.43;;
18290;SDS011;9271;48.590;8.866;2022-07-19T04:32:14;7.30;;;3.37;;
18290;SDS011;9271;48.590;8.866;2022-07-19T04:34:41;3.53;;;3.27;;
18290;SDS011;9271;48.590;8.866;2022-07-19T04:37:08;5.27;;;3.33;;
18290;SDS011;9271;48.590;8.866;2022-07-19T04:39:34;3.60;;;3.30;;
18290;SDS011;9271;48.590;8.866;2022-07-19T04:42:01;5.40;;;3.63;;
18290;SDS011;9271;48.590;8.866;2022-07-19T04:44:28;5.77;;;3.40;;
18290;SDS011;9271;48.590;8.866;2022-07-19T04:46:54;3.53;;;3.20;;
18290;SDS011;9271;48.590;8.866;2022-07-19T04:49:22;3.53;;;3.23;;
18290;SDS011;9271;48.590;8.866;2022-07-19T04:51:49;3.70;;;3.40;;
18290;SDS011;9271;48.590;8.866;2022-07-19T04:54:16;4.77;;;3.30;;
18290;SDS011;9271;48.590;8.866;2022-07-19T04:56:42;4.27;;;3.40;;
18290;SDS011;9271;48.590;8.866;2022-07-19T04:59:09;5.47;;;3.37;;
18290;SDS011;9271;48.590;8.866;2022-07-19T05:01:36;4.97;;;3.30;;
18290;SDS011;9271;48.590;8.866;2022-07-19T05:04:03;3.50;;;3.20;;
18290;SDS011;9271;48.590;8.866;2022-07-19T05:06:31;11.10;;;3.90;;
18290;SDS011;9271;48.590;8.866;2022-07-19T05:08:58;4.50;;;3.23;;
18290;SDS011;9271;48.590;8.866;2022-07-19T05:11:25;3.53;;;3.10;;
18290;SDS011;9271;48.590;8.866;2022-07-19T05:13:51;3.67;;;3.10;;
18290;SDS011;9271;48.590;8.866;2022-07-19T05:16:18;3.70;;;3.20;;
18290;SDS011;9271;48.590;8.866;2022-07-19T05:18:45;5.13;;;3.47;;
18290;SDS011;9271;48.590;8.866;2022-07-19T05:21:11;4.30;;;3.40;;
18290;SDS011;9271;48.590;8.866;2022-07-19T05:23:40;3.60;;;2.83;;
18290;SDS011;9271;48.590;8.866;2022-07-19T05:26:07;5.60;;;2.83;;
18290;SDS011;9271;48.590;8.866;2022-07-19T05:28:34;4.07;;;3.47;;
18290;SDS011;9271;48.590;8.866;2022-07-19T05:31:01;4.13;;;3.47;;
18290;SDS011;9271;48.590;8.866;2022-07-19T05:33:28;4.60;;;3.50;;
18290;SDS011;9271;48.590;8.866;2022-07-19T05:35:55;4.53;;;3.93;;
18290;SDS011;9271;48.590;8.866;2022-07-19T05:38:22;5.67;;;4.50;;
18290;SDS011;9271;48.590;8.866;2022-07-19T05:40:50;4.50;;;4.03;;
18290;SDS011;9271;48.590;8.866;2022-07-19T05:43:16;9.00;;;4.17;;
18290;SDS011;9271;48.590;8.866;2022-07-19T05:45:43;6.23;;;4.13;;
18290;SDS011;9271;48.590;8.866;2022-07-19T05:48:10;4.83;;;4.17;;
18290;SDS011;9271;48.590;8.866;2022-07-19T05:50:37;5.43;;;4.00;;
18290;SDS011;9271;48.590;8.866;2022-07-19T05:53:03;7.40;;;3.53;;
18290;SDS011;9271;48.590;8.866;2022-07-19T05:55:30;6.63;;;3.80;;
18290;SDS011;9271;48.590;8.866;2022-07-19T05:57:58;10.80;;;3.80;;
18290;SDS011;9271;48.590;8.866;2022-07-19T06:00:25;6.10;;;3.70;;
18290;SDS011;9271;48.590;8.866;2022-07-19T06:02:52;5.80;;;4.43;;
18290;SDS011;9271;48.590;8.866;2022-07-19T06:05:18;4.30;;;3.90;;
18290;SDS011;9271;48.590;8.866;2022-07-19T06:07:45;5.63;;;3.73;;
18290;SDS011;9271;48.590;8.866;2022-07-19T06:10:12;5.03;;;3.40;;
18290;SDS011;9271;48.590;8.866;2022-07-19T06:12:38;9.13;;;4.10;;
18290;SDS011;9271;48.590;8.866;2022-07-19T06:15:07;6.30;;;4.17;;
18290;SDS011;9271;48.590;8.866;2022-07-19T06:17:34;8.30;;;4.00;;
18290;SDS011;9271;48.590;8.866;2022-07-19T06:20:01;4.23;;;3.80;;
18290;SDS011;9271;48.590;8.866;2022-07-19T06:22:28;8.67;;;4.07;;
18290;SDS011;9271;48.590;8.866;2022-07-19T06:24:56;4.20;;;3.90;;
18290;SDS011;9271;48.590;8.866;2022-07-19T06:27:23;4.13;;;3.73;;
18290;SDS011;9271;48.590;8.866;2022-07-19T06:29:50;4.03;;;3.63;;
18290;SDS011;9271;48.590;8.866;2022-07-19T06:32:18;8.60;;;3.77;;
18290;SDS011;9271;48.590;8.866;2022-07-19T06:34:44;12.03;;;3.67;;
18290;SDS011;9271;48.590;8.866;2022-07-19T06:37:11;4.17;;;3.77;;
18290;SDS011;9271;48.590;8.866;2022-07-19T06:39:38;3.97;;;3.53;;
18290;SDS011;9271;48.590;8.866;2022-07-19T06:42:04;4.70;;;3.67;;
18290;SDS011;9271;48.590;8.866;2022-07-19T06:44:31;8.93;;;4.17;;
18290;SDS011;9271;48.590;8.866;2022-07-19T06:46:58;6.53;;;3.50;;
18290;SDS011;9271;48.590;8.866;2022-07-19T06:49:26;13.27;;;3.97;;
18290;SDS011;9271;48.590;8.866;2022-07-19T06:51:52;8.07;;;4.43;;
18290;SDS011;9271;48.590;8.866;2022-07-19T06:54:19;8.83;;;4.30;;
18290;SDS011;9271;48.590;8.866;2022-07-19T06:56:46;6.63;;;3.70;;
18290;SDS011;9271;48.590;8.866;2022-07-19T06:59:13;4.90;;;2.93;;
18290;SDS011;9271;48.590;8.866;2022-07-19T07:01:39;4.90;;;2.93;;
18290;SDS011;9271;48.590;8.866;2022-07-19T07:04:06;6.77;;;3.07;;
18290;SDS011;9271;48.590;8.866;2022-07-19T07:06:34;6.50;;;3.00;;
18290;SDS011;9271;48.590;8.866;2022-07-19T07:09:01;5.20;;;2.80;;
18290;SDS011;9271;48.590;8.866;2022-07-19T07:11:28;4.90;;;2.83;;
18290;SDS011;9271;48.590;8.866;2022-07-19T07:13:55;4.17;;;2.90;;
18290;SDS011;9271;48.590;8.866;2022-07-19T07:16:22;3.50;;;2.93;;
18290;SDS011;9271;48.590;8.866;2022-07-19T07:18:49;5.63;;;3.00;;
18290;SDS011;9271;48.590;8.866;2022-07-19T07:21:15;4.43;;;2.50;;
18290;SDS011;9271;48.590;8.866;2022-07-19T07:23:43;3.80;;;2.40;;
18290;SDS011;9271;48.590;8.866;2022-07-19T07:26:10;6.13;;;2.70;;
18290;SDS011;9271;48.590;8.866;2022-07-19T07:28:37;5.07;;;2.63;;
18290;SDS011;9271;48.590;8.866;2022-07-19T07:31:04;3.20;;;2.57;;
18290;SDS011;9271;48.590;8.866;2022-07-19T07:33:31;4.83;;;2.70;;
18290;SDS011;9271;48.590;8.866;2022-07-19T07:35:57;8.50;;;2.40;;
18290;SDS011;9271;48.590;8.866;2022-07-19T07:38:24;3.83;;;2.43;;
18290;SDS011;9271;48.590;8.866;2022-07-19T07:40:52;4.13;;;2.67;;
18290;SDS011;9271;48.590;8.866;2022-07-19T07:43:19;2.93;;;2.37;;
18290;SDS011;9271;48.590;8.866;2022-07-19T07:45:45;2.53;;;2.33;;
18290;SDS011;9271;48.590;8.866;2022-07-19T07:48:12;5.15;;;2.53;;
18290;SDS011;9271;48.590;8.866;2022-07-19T07:50:39;2.65;;;2.45;;
18290;SDS011;9271;48.590;8.866;2022-07-19T07:53:05;3.47;;;2.00;;
18290;SDS011;9271;48.590;8.866;2022-07-19T07:55:32;5.15;;;2.35;;
18290;SDS011;9271;48.590;8.866;2022-07-19T07:58:05;4.75;;;2.33;;
18290;SDS011;9271;48.590;8.866;2022-07-19T08:00:32;4.82;;;2.33;;
18290;SDS011;9271;48.590;8.866;2022-07-19T08:02:59;2.17;;;1.80;;
18290;SDS011;9271;48.590;8.866;2022-07-19T08:05:25;2.78;;;2.10;;
18290;SDS011;9271;48.590;8.866;2022-07-19T08:07:52;2.95;;;2.00;;
18290;SDS011;9271;48.590;8.866;2022-07-19T08:10:19;4.03;;;1.80;;
18290;SDS011;9271;48.590;8.866;2022-07-19T08:12:47;2.30;;;2.10;;
18290;SDS011;9271;48.590;8.866;2022-07-19T08:15:15;3.33;;;2.38;;
18290;SDS011;9271;48.590;8.866;2022-07-19T08:17:41;3.65;;;1.88;;
18290;SDS011;9271;48.590;8.866;2022-07-19T08:20:08;2.25;;;1.90;;
18290;SDS011;9271;48.590;8.866;2022-07-19T08:22:35;6.65;;;2.00;;
18290;SDS011;9271;48.590;8.866;2022-07-19T08:25:03;3.10;;;2.13;;
18290;SDS011;9271;48.590;8.866;2022-07-19T08:27:30;3.72;;;1.80;;
18290;SDS011;9271;48.590;8.866;2022-07-19T08:29:58;5.82;;;2.10;;
18290;SDS011;9271;48.590;8.866;2022-07-19T08:32:26;4.07;;;1.95;;
18290;SDS011;9271;48.590;8.866;2022-07-19T08:34:53;3.50;;;1.67;;
18290;SDS011;9271;48.590;8.866;2022-07-19T08:37:19;2.08;;;1.88;;
18290;SDS011;9271;48.590;8.866;2022-07-19T08:39:46;2.72;;;1.83;;
18290;SDS011;9271;48.590;8.866;2022-07-19T08:42:13;2.60;;;2.00;;
18290;SDS011;9271;48.590;8.866;2022-07-19T08:44:43;1.67;;;1.58;;
18290;SDS011;9271;48.590;8.866;2022-07-19T08:47:10;2.08;;;1.80;;
18290;SDS011;9271;48.590;8.866;2022-07-19T08:49:40;3.05;;;1.63;;
18290;SDS011;9271;48.590;8.866;2022-07-19T08:52:08;4.68;;;1.90;;
18290;SDS011;9271;48.590;8.866;2022-07-19T08:54:34;2.95;;;1.90;;
18290;SDS011;9271;48.590;8.866;2022-07-19T08:57:01;3.67;;;1.92;;
18290;SDS011;9271;48.590;8.866;2022-07-19T08:59:45;3.13;;;1.90;;
18290;SDS011;9271;48.590;8.866;2022-07-19T09:02:12;2.92;;;1.70;;
18290;SDS011;9271;48.590;8.866;2022-07-19T09:04:40;2.33;;;1.85;;
18290;SDS011;9271;48.590;8.866;2022-07-19T09:07:07;4.00;;;1.80;;
18290;SDS011;9271;48.590;8.866;2022-07-19T09:09:34;3.00;;;1.90;;
18290;SDS011;9271;48.590;8.866;2022-07-19T09:12:02;5.32;;;2.10;;
18290;SDS011;9271;48.590;8.866;2022-07-19T09:14:31;2.10;;;1.90;;
18290;SDS011;9271;48.590;8.866;2022-07-19T09:17:00;2.20;;;2.00;;
18290;SDS011;9271;48.590;8.866;2022-07-19T09:19:28;2.40;;;1.90;;
18290;SDS011;9271;48.590;8.866;2022-07-19T09:21:58;5.95;;;2.00;;
18290;SDS011;9271;48.590;8.866;2022-07-19T09:24:26;4.65;;;2.00;;
18290;SDS011;9271;48.590;8.866;2022-07-19T09:26:57;2.65;;;2.00;;
18290;SDS011;9271;48.590;8.866;2022-07-19T09:29:26;2.35;;;1.83;;
18290;SDS011;9271;48.590;8.866;2022-07-19T09:32:06;2.53;;;1.90;;
18290;SDS011;9271;48.590;8.866;2022-07-19T09:34:35;4.82;;;2.00;;
18290;SDS011;9271;48.590;8.866;2022-07-19T09:37:08;2.97;;;2.20;;
18290;SDS011;9271;48.590;8.866;2022-07-19T09:39:36;5.07;;;1.90;;
18290;SDS011;9271;48.590;8.866;2022-07-19T09:42:04;2.38;;;1.63;;
18290;SDS011;9271;48.590;8.866;2022-07-19T09:44:31;3.25;;;2.00;;
18290;SDS011;9271;48.590;8.866;2022-07-19T09:46:58;4.75;;;1.80;;
18290;SDS011;9271;48.590;8.866;2022-07-19T09:49:24;2.50;;;1.90;;
18290;SDS011;9271;48.590;8.866;2022-07-19T09:51:52;3.25;;;1.88;;
18290;SDS011;9271;48.590;8.866;2022-07-19T09:56:59;3.95;;;1.80;;
18290;SDS011;9271;48.590;8.866;2022-07-19T09:59:26;2.38;;;1.92;;
18290;SDS011;9271;48.590;8.866;2022-07-19T10:01:54;2.08;;;1.80;;
18290;SDS011;9271;48.590;8.866;2022-07-19T10:04:23;2.00;;;1.90;;
18290;SDS011;9271;48.590;8.866;2022-07-19T10:06:52;3.90;;;1.85;;
18290;SDS011;9271;48.590;8.866;2022-07-19T10:09:20;4.68;;;1.65;;
18290;SDS011;9271;48.590;8.866;2022-07-19T10:11:48;6.25;;;1.98;;
18290;SDS011;9271;48.590;8.866;2022-07-19T10:14:18;6.97;;;1.90;;
18290;SDS011;9271;48.590;8.866;2022-07-19T10:16:56;3.15;;;1.88;;
18290;SDS011;9271;48.590;8.866;2022-07-19T10:19:31;3.03;;;1.92;;
18290;SDS011;9271;48.590;8.866;2022-07-19T10:22:02;4.40;;;2.10;;
18290;SDS011;9271;48.590;8.866;2022-07-19T10:27:34;3.13;;;2.10;;
18290;SDS011;9271;48.590;8.866;2022-07-19T10:32:53;3.97;;;1.90;;
18290;SDS011;9271;48.590;8.866;2022-07-19T10:35:22;4.93;;;2.15;;
18290;SDS011;9271;48.590;8.866;2022-07-19T10:37:54;2.75;;;2.15;;
18290;SDS011;9271;48.590;8.866;2022-07-19T10:40:35;4.60;;;1.80;;
18290;SDS011;9271;48.590;8.866;2022-07-19T10:43:06;6.15;;;2.30;;
18290;SDS011;9271;48.590;8.866;2022-07-19T10:45:35;5.75;;;2.20;;
18290;SDS011;9271;48.590;8.866;2022-07-19T10:48:07;2.05;;;1.90;;
18290;SDS011;9271;48.590;8.866;2022-07-19T10:50:46;5.70;;;2.17;;
18290;SDS011;9271;48.590;8.866;2022-07-19T10:56:22;4.43;;;1.80;;
18290;SDS011;9271;48.590;8.866;2022-07-19T10:58:51;4.20;;;2.03;;
18290;SDS011;9271;48.590;8.866;2022-07-19T11:01:21;3.05;;;2.08;;
18290;SDS011;9271;48.590;8.866;2022-07-19T11:03:49;4.13;;;2.20;;
18290;SDS011;9271;48.590;8.866;2022-07-19T11:06:20;5.78;;;1.90;;
18290;SDS011;9271;48.590;8.866;2022-07-19T11:08:48;9.15;;;2.10;;
18290;SDS011;9271;48.590;8.866;2022-07-19T11:11:19;3.28;;;1.88;;
18290;SDS011;9271;48.590;8.866;2022-07-19T11:13:46;4.82;;;1.90;;
18290;SDS011;9271;48.590;8.866;2022-07-19T11:16:14;2.00;;;1.90;;
18290;SDS011;9271;48.590;8.866;2022-07-19T11:18:42;3.22;;;2.00;;
18290;SDS011;9271;48.590;8.866;2022-07-19T11:21:10;3.05;;;2.00;;
18290;SDS011;9271;48.590;8.866;2022-07-19T11:23:38;4.40;;;2.05;;
18290;SDS011;9271;48.590;8.866;2022-07-19T11:26:07;3.70;;;1.95;;
18290;SDS011;9271;48.590;8.866;2022-07-19T11:28:35;2.83;;;1.98;;
18290;SDS011;9271;48.590;8.866;2022-07-19T11:31:10;2.45;;;2.00;;
18290;SDS011;9271;48.590;8.866;2022-07-19T11:33:38;4.22;;;2.17;;
18290;SDS011;9271;48.590;8.866;2022-07-19T11:36:06;4.65;;;2.15;;
18290;SDS011;9271;48.590;8.866;2022-07-19T11:38:38;3.88;;;2.00;;
18290;SDS011;9271;48.590;8.866;2022-07-19T11:41:11;3.35;;;2.10;;
18290;SDS011;9271;48.590;8.866;2022-07-19T11:43:40;3.95;;;2.30;;
18290;SDS011;9271;48.590;8.866;2022-07-19T11:46:07;4.20;;;2.20;;
18290;SDS011;9271;48.590;8.866;2022-07-19T11:48:33;4.80;;;2.17;;
18290;SDS011;9271;48.590;8.866;2022-07-19T11:51:01;3.55;;;2.33;;
18290;SDS011;9271;48.590;8.866;2022-07-19T11:53:32;2.58;;;2.38;;
18290;SDS011;9271;48.590;8.866;2022-07-19T11:56:00;5.90;;;2.20;;
18290;SDS011;9271;48.590;8.866;2022-07-19T11:58:27;4.95;;;2.00;;
18290;SDS011;9271;48.590;8.866;2022-07-19T12:01:02;2.50;;;1.90;;
18290;SDS011;9271;48.590;8.866;2022-07-19T12:03:30;4.80;;;2.03;;
18290;SDS011;9271;48.590;8.866;2022-07-19T12:05:58;2.78;;;2.00;;
18290;SDS011;9271;48.590;8.866;2022-07-19T12:08:39;2.30;;;2.20;;
18290;SDS011;9271;48.590;8.866;2022-07-19T12:11:17;3.35;;;2.10;;
18290;SDS011;9271;48.590;8.866;2022-07-19T12:13:46;7.25;;;2.40;;
18290;SDS011;9271;48.590;8.866;2022-07-19T12:16:13;3.10;;;2.20;;
18290;SDS011;9271;48.590;8.866;2022-07-19T12:18:44;4.97;;;2.20;;
18290;SDS011;9271;48.590;8.866;2022-07-19T12:21:14;3.08;;;2.05;;
18290;SDS011;9271;48.590;8.866;2022-07-19T12:26:44;2.83;;;2.38;;
18290;SDS011;9271;48.590;8.866;2022-07-19T12:29:20;5.20;;;2.40;;
18290;SDS011;9271;48.590;8.866;2022-07-19T12:31:49;3.85;;;2.50;;
18290;SDS011;9271;48.590;8.866;2022-07-19T12:34:17;3.78;;;2.45;;
18290;SDS011;9271;48.590;8.866;2022-07-19T12:36:45;3.60;;;2.20;;
18290;SDS011;9271;48.590;8.866;2022-07-19T12:39:20;4.85;;;2.58;;
18290;SDS011;9271;48.590;8.866;2022-07-19T12:41:57;2.53;;;2.33;;
18290;SDS011;9271;48.590;8.866;2022-07-19T12:44:29;3.55;;;2.30;;
18290;SDS011;9271;48.590;8.866;2022-07-19T12:46:57;2.72;;;2.30;;
18290;SDS011;9271;48.590;8.866;2022-07-19T12:49:24;3.88;;;2.60;;
18290;SDS011;9271;48.590;8.866;2022-07-19T12:51:50;3.03;;;2.20;;
18290;SDS011;9271;48.590;8.866;2022-07-19T12:54:18;4.75;;;2.30;;
18290;SDS011;9271;48.590;8.866;2022-07-19T12:56:46;3.35;;;2.13;;
18290;SDS011;9271;48.590;8.866;2022-07-19T12:59:12;4.72;;;2.38;;
18290;SDS011;9271;48.590;8.866;2022-07-19T13:01:57;7.45;;;2.17;;
18290;SDS011;9271;48.590;8.866;2022-07-19T13:04:24;6.45;;;2.25;;
18290;SDS011;9271;48.590;8.866;2022-07-19T13:06:50;5.07;;;2.30;;
18290;SDS011;9271;48.590;8.866;2022-07-19T13:09:17;7.28;;;3.10;;
18290;SDS011;9271;48.590;8.866;2022-07-19T13:11:45;2.30;;;2.10;;
18290;SDS011;9271;48.590;8.866;2022-07-19T13:14:12;4.55;;;2.42;;
18290;SDS011;9271;48.590;8.866;2022-07-19T13:16:39;2.72;;;2.05;;
18290;SDS011;9271;48.590;8.866;2022-07-19T13:19:06;3.28;;;2.20;;
18290;SDS011;9271;48.590;8.866;2022-07-19T13:21:33;3.13;;;1.88;;
18290;SDS011;9271;48.590;8.866;2022-07-19T13:24:00;5.65;;;2.30;;
18290;SDS011;9271;48.590;8.866;2022-07-19T13:26:27;3.00;;;2.10;;
18290;SDS011;9271;48.590;8.866;2022-07-19T13:28:55;3.30;;;2.10;;
18290;SDS011;9271;48.590;8.866;2022-07-19T13:31:22;2.65;;;2.00;;
18290;SDS011;9271;48.590;8.866;2022-07-19T13:33:49;2.67;;;2.00;;
18290;SDS011;9271;48.590;8.866;2022-07-19T13:36:15;3.83;;;1.90;;
18290;SDS011;9271;48.590;8.866;2022-07-19T13:38:42;2.72;;;2.13;;
18290;SDS011;9271;48.590;8.866;2022-07-19T13:41:09;4.30;;;2.30;;
18290;SDS011;9271;48.590;8.866;2022-07-19T13:43:36;3.88;;;2.00;;
18290;SDS011;9271;48.590;8.866;2022-07-19T13:46:04;2.97;;;2.22;;
18290;SDS011;9271;48.590;8.866;2022-07-19T13:48:31;4.63;;;2.33;;
18290;SDS011;9271;48.590;8.866;2022-07-19T13:50:58;2.50;;;2.00;;
18290;SDS011;9271;48.590;8.866;2022-07-19T13:53:24;2.63;;;2.30;;
18290;SDS011;9271;48.590;8.866;2022-07-19T13:55:51;2.42;;;1.90;;
18290;SDS011;9271;48.590;8.866;2022-07-19T13:58:18;3.13;;;2.10;;
18290;SDS011;9271;48.590;8.866;2022-07-19T14:00:44;4.78;;;2.10;;
18290;SDS011;9271;48.590;8.866;2022-07-19T14:03:13;3.33;;;2.00;;
18290;SDS011;9271;48.590;8.866;2022-07-19T14:05:42;3.30;;;2.20;;
18290;SDS011;9271;48.590;8.866;2022-07-19T14:08:08;3.05;;;2.13;;
18290;SDS011;9271;48.590;8.866;2022-07-19T14:10:35;5.20;;;2.25;;
18290;SDS011;9271;48.590;8.866;2022-07-19T14:13:02;3.50;;;2.33;;
18290;SDS011;9271;48.590;8.866;2022-07-19T14:15:29;9.00;;;2.45;;
18290;SDS011;9271;48.590;8.866;2022-07-19T14:17:56;3.90;;;2.33;;
18290;SDS011;9271;48.590;8.866;2022-07-19T14:20:25;4.57;;;2.20;;
18290;SDS011;9271;48.590;8.866;2022-07-19T14:22:52;3.35;;;2.42;;
18290;SDS011;9271;48.590;8.866;2022-07-19T14:25:19;3.60;;;2.22;;
18290;SDS011;9271;48.590;8.866;2022-07-19T14:27:47;3.13;;;2.35;;
18290;SDS011;9271;48.590;8.866;2022-07-19T14:30:14;3.22;;;2.33;;
18290;SDS011;9271;48.590;8.866;2022-07-19T14:32:41;3.60;;;2.00;;
18290;SDS011;9271;48.590;8.866;2022-07-19T14:35:08;4.15;;;2.30;;
18290;SDS011;9271;48.590;8.866;2022-07-19T14:37:36;4.38;;;2.45;;
18290;SDS011;9271;48.590;8.866;2022-07-19T14:40:03;5.13;;;2.60;;
18290;SDS011;9271;48.590;8.866;2022-07-19T14:42:31;3.55;;;2.45;;
18290;SDS011;9271;48.590;8.866;2022-07-19T14:44:58;3.45;;;2.22;;
18290;SDS011;9271;48.590;8.866;2022-07-19T14:47:24;3.50;;;2.20;;
18290;SDS011;9271;48.590;8.866;2022-07-19T14:49:51;2.75;;;2.17;;
18290;SDS011;9271;48.590;8.866;2022-07-19T14:52:18;3.38;;;2.33;;
18290;SDS011;9271;48.590;8.866;2022-07-19T14:54:46;4.57;;;2.25;;
18290;SDS011;9271;48.590;8.866;2022-07-19T14:57:12;4.03;;;2.50;;
18290;SDS011;9271;48.590;8.866;2022-07-19T14:59:39;3.47;;;2.45;;
18290;SDS011;9271;48.590;8.866;2022-07-19T15:02:06;4.55;;;2.60;;
18290;SDS011;9271;48.590;8.866;2022-07-19T15:04:34;4.97;;;2.50;;
18290;SDS011;9271;48.590;8.866;2022-07-19T15:07:01;3.47;;;2.50;;
18290;SDS011;9271;48.590;8.866;2022-07-19T15:09:27;3.47;;;2.35;;
18290;SDS011;9271;48.590;8.866;2022-07-19T15:11:55;3.45;;;2.50;;
18290;SDS011;9271;48.590;8.866;2022-07-19T15:14:24;4.40;;;2.80;;
18290;SDS011;9271;48.590;8.866;2022-07-19T15:16:53;3.75;;;2.30;;
18290;SDS011;9271;48.590;8.866;2022-07-19T15:19:19;5.60;;;2.53;;